sensor_id;sensor_type;location;lat;lon;timestamp;P1;durP1;ratioP1;P2;durP2;ratioP2
495;SDS011;39559;48.630;9.162;2022-11-20T00:01:10;5.60;;;5.10;;
495;SDS011;39559;48.630;9.162;2022-11-20T00:03:41;8.15;;;5.10;;
495;SDS011;39559;48.630;9.162;2022-11-20T00:06:08;5.27;;;4.77;;
495;SDS011;39559;48.630;9.162;2022-11-20T00:10:11;7.30;;;5.43;;
495;SDS011;39559;48.630;9.162;2022-11-20T00:12:37;6.50;;;5.70;;
495;SDS011;39559;48.630;9.162;2022-11-20T00:15:03;5.90;;;5.30;;
495;SDS011;39559;48.630;9.162;2022-11-20T00:17:29;6.63;;;5.93;;
495;SDS011;39559;48.630;9.162;2022-11-20T00:19:55;5.90;;;5.30;;
495;SDS011;39559;48.630;9.162;2022-11-20T00:22:20;7.33;;;6.40;;
495;SDS011;39559;48.630;9.162;2022-11-20T00:24:46;6.23;;;5.63;;
495;SDS011;39559;48.630;9.162;2022-11-20T00:27:11;6.87;;;5.80;;
495;SDS011;39559;48.630;9.162;2022-11-20T00:29:37;6.67;;;5.90;;
495;SDS011;39559;48.630;9.162;2022-11-20T00:34:11;6.28;;;5.20;;
495;SDS011;39559;48.630;9.162;2022-11-20T00:36:37;5.90;;;5.17;;
495;SDS011;39559;48.630;9.162;2022-11-20T00:39:03;6.67;;;5.07;;
495;SDS011;39559;48.630;9.162;2022-11-20T00:41:28;6.60;;;5.13;;
495;SDS011;39559;48.630;9.162;2022-11-20T00:43:54;6.60;;;5.15;;
495;SDS011;39559;48.630;9.162;2022-11-20T00:46:21;6.72;;;4.72;;
495;SDS011;39559;48.630;9.162;2022-11-20T00:48:49;6.97;;;5.10;;
495;SDS011;39559;48.630;9.162;2022-11-20T00:51:16;6.47;;;5.07;;
495;SDS011;39559;48.630;9.162;2022-11-20T00:53:44;6.15;;;4.93;;
495;SDS011;39559;48.630;9.162;2022-11-20T00:58:10;6.38;;;5.10;;
495;SDS011;39559;48.630;9.162;2022-11-20T01:00:36;5.93;;;4.87;;
495;SDS011;39559;48.630;9.162;2022-11-20T01:03:01;4.70;;;4.30;;
495;SDS011;39559;48.630;9.162;2022-11-20T01:05:27;5.30;;;4.80;;
495;SDS011;39559;48.630;9.162;2022-11-20T01:07:52;5.90;;;5.30;;
495;SDS011;39559;48.630;9.162;2022-11-20T01:10:18;6.47;;;5.10;;
495;SDS011;39559;48.630;9.162;2022-11-20T01:12:44;5.00;;;4.60;;
495;SDS011;39559;48.630;9.162;2022-11-20T01:15:29;5.85;;;5.05;;
495;SDS011;39559;48.630;9.162;2022-11-20T01:17:54;7.40;;;5.30;;
495;SDS011;39559;48.630;9.162;2022-11-20T01:22:11;6.28;;;4.90;;
495;SDS011;39559;48.630;9.162;2022-11-20T01:24:36;5.20;;;4.70;;
495;SDS011;39559;48.630;9.162;2022-11-20T01:27:02;5.73;;;5.13;;
495;SDS011;39559;48.630;9.162;2022-11-20T01:29:28;5.73;;;4.90;;
495;SDS011;39559;48.630;9.162;2022-11-20T01:31:53;5.80;;;4.60;;
495;SDS011;39559;48.630;9.162;2022-11-20T01:34:19;5.00;;;4.50;;
495;SDS011;39559;48.630;9.162;2022-11-20T01:36:50;6.38;;;5.05;;
495;SDS011;39559;48.630;9.162;2022-11-20T01:39:21;5.88;;;4.85;;
495;SDS011;39559;48.630;9.162;2022-11-20T01:41:49;6.43;;;4.95;;
495;SDS011;39559;48.630;9.162;2022-11-20T01:46:15;6.25;;;5.10;;
495;SDS011;39559;48.630;9.162;2022-11-20T01:48:48;5.15;;;4.65;;
495;SDS011;39559;48.630;9.162;2022-11-20T01:51:29;6.75;;;5.07;;
495;SDS011;39559;48.630;9.162;2022-11-20T01:54:05;5.00;;;4.47;;
495;SDS011;39559;48.630;9.162;2022-11-20T01:56:35;5.30;;;4.80;;
495;SDS011;39559;48.630;9.162;2022-11-20T01:59:04;5.82;;;5.22;;
495;SDS011;39559;48.630;9.162;2022-11-20T02:01:32;6.38;;;5.38;;
495;SDS011;39559;48.630;9.162;2022-11-20T02:03:59;5.07;;;4.57;;
495;SDS011;39559;48.630;9.162;2022-11-20T02:06:29;5.70;;;4.88;;
495;SDS011;39559;48.630;9.162;2022-11-20T02:10:11;6.35;;;5.15;;
495;SDS011;39559;48.630;9.162;2022-11-20T02:12:37;5.57;;;4.90;;
495;SDS011;39559;48.630;9.162;2022-11-20T02:15:21;5.85;;;4.70;;
495;SDS011;39559;48.630;9.162;2022-11-20T02:17:47;6.47;;;5.40;;
495;SDS011;39559;48.630;9.162;2022-11-20T02:20:13;6.20;;;5.57;;
495;SDS011;39559;48.630;9.162;2022-11-20T02:22:42;9.13;;;5.40;;
495;SDS011;39559;48.630;9.162;2022-11-20T02:25:22;7.38;;;6.53;;
495;SDS011;39559;48.630;9.162;2022-11-20T02:27:50;6.55;;;5.80;;
495;SDS011;39559;48.630;9.162;2022-11-20T02:30:16;7.68;;;5.95;;
495;SDS011;39559;48.630;9.162;2022-11-20T02:34:11;8.05;;;6.43;;
495;SDS011;39559;48.630;9.162;2022-11-20T02:36:38;11.63;;;7.37;;
495;SDS011;39559;48.630;9.162;2022-11-20T02:39:09;9.05;;;7.05;;
495;SDS011;39559;48.630;9.162;2022-11-20T02:41:37;9.95;;;6.97;;
495;SDS011;39559;48.630;9.162;2022-11-20T02:44:04;9.30;;;7.15;;
495;SDS011;39559;48.630;9.162;2022-11-20T02:46:33;8.25;;;6.85;;
495;SDS011;39559;48.630;9.162;2022-11-20T02:49:00;9.98;;;7.30;;
495;SDS011;39559;48.630;9.162;2022-11-20T02:51:28;8.35;;;6.95;;
495;SDS011;39559;48.630;9.162;2022-11-20T02:53:53;9.27;;;7.60;;
495;SDS011;39559;48.630;9.162;2022-11-20T02:58:11;5.93;;;5.30;;
495;SDS011;39559;48.630;9.162;2022-11-20T03:00:36;6.33;;;5.43;;
495;SDS011;39559;48.630;9.162;2022-11-20T03:03:02;6.13;;;5.30;;
495;SDS011;39559;48.630;9.162;2022-11-20T03:05:27;5.13;;;4.63;;
495;SDS011;39559;48.630;9.162;2022-11-20T03:07:53;5.43;;;4.43;;
495;SDS011;39559;48.630;9.162;2022-11-20T03:10:18;7.63;;;5.30;;
495;SDS011;39559;48.630;9.162;2022-11-20T03:12:47;6.13;;;5.53;;
495;SDS011;39559;48.630;9.162;2022-11-20T03:15:12;7.40;;;5.80;;
495;SDS011;39559;48.630;9.162;2022-11-20T03:17:38;9.07;;;6.50;;
495;SDS011;39559;48.630;9.162;2022-11-20T03:22:12;7.97;;;5.90;;
495;SDS011;39559;48.630;9.162;2022-11-20T03:24:37;7.10;;;5.77;;
495;SDS011;39559;48.630;9.162;2022-11-20T03:27:03;6.73;;;5.47;;
495;SDS011;39559;48.630;9.162;2022-11-20T03:29:28;6.40;;;5.80;;
495;SDS011;39559;48.630;9.162;2022-11-20T03:31:54;6.63;;;5.70;;
495;SDS011;39559;48.630;9.162;2022-11-20T03:34:19;6.70;;;5.80;;
495;SDS011;39559;48.630;9.162;2022-11-20T03:36:45;7.27;;;5.03;;
495;SDS011;39559;48.630;9.162;2022-11-20T03:39:10;6.10;;;5.40;;
495;SDS011;39559;48.630;9.162;2022-11-20T03:41:37;5.50;;;5.00;;
495;SDS011;39559;48.630;9.162;2022-11-20T03:46:12;6.05;;;5.43;;
495;SDS011;39559;48.630;9.162;2022-11-20T03:48:38;6.60;;;5.60;;
495;SDS011;39559;48.630;9.162;2022-11-20T03:51:10;5.80;;;5.03;;
495;SDS011;39559;48.630;9.162;2022-11-20T03:53:38;4.65;;;4.25;;
495;SDS011;39559;48.630;9.162;2022-11-20T03:56:08;5.32;;;4.82;;
495;SDS011;39559;48.630;9.162;2022-11-20T04:01:25;5.40;;;4.55;;
495;SDS011;39559;48.630;9.162;2022-11-20T04:03:54;6.18;;;4.40;;
495;SDS011;39559;48.630;9.162;2022-11-20T04:06:27;5.22;;;4.72;;
495;SDS011;39559;48.630;9.162;2022-11-20T04:10:13;5.95;;;4.65;;
495;SDS011;39559;48.630;9.162;2022-11-20T04:12:40;8.75;;;5.40;;
495;SDS011;39559;48.630;9.162;2022-11-20T04:15:07;4.90;;;4.50;;
495;SDS011;39559;48.630;9.162;2022-11-20T04:17:34;4.60;;;4.20;;
495;SDS011;39559;48.630;9.162;2022-11-20T04:20:04;5.47;;;4.45;;
495;SDS011;39559;48.630;9.162;2022-11-20T04:22:30;4.57;;;4.18;;
495;SDS011;39559;48.630;9.162;2022-11-20T04:24:55;6.03;;;4.70;;
495;SDS011;39559;48.630;9.162;2022-11-20T04:27:20;4.97;;;4.47;;
495;SDS011;39559;48.630;9.162;2022-11-20T04:29:46;6.20;;;5.30;;
495;SDS011;39559;48.630;9.162;2022-11-20T04:34:23;4.82;;;4.43;;
495;SDS011;39559;48.630;9.162;2022-11-20T04:36:50;5.10;;;4.60;;
495;SDS011;39559;48.630;9.162;2022-11-20T04:39:16;5.22;;;4.72;;
495;SDS011;39559;48.630;9.162;2022-11-20T04:41:42;5.20;;;4.47;;
495;SDS011;39559;48.630;9.162;2022-11-20T04:44:07;5.30;;;4.40;;
495;SDS011;39559;48.630;9.162;2022-11-20T04:46:34;4.73;;;4.20;;
495;SDS011;39559;48.630;9.162;2022-11-20T04:49:06;5.45;;;4.63;;
495;SDS011;39559;48.630;9.162;2022-11-20T04:51:32;6.03;;;4.70;;
495;SDS011;39559;48.630;9.162;2022-11-20T04:53:58;5.10;;;4.45;;
495;SDS011;39559;48.630;9.162;2022-11-20T04:58:22;5.18;;;3.90;;
495;SDS011;39559;48.630;9.162;2022-11-20T05:00:47;5.00;;;4.60;;
495;SDS011;39559;48.630;9.162;2022-11-20T05:03:13;5.87;;;4.57;;
495;SDS011;39559;48.630;9.162;2022-11-20T05:05:38;6.20;;;4.80;;
495;SDS011;39559;48.630;9.162;2022-11-20T05:08:04;4.70;;;4.20;;
495;SDS011;39559;48.630;9.162;2022-11-20T05:10:29;4.37;;;4.00;;
495;SDS011;39559;48.630;9.162;2022-11-20T05:12:56;5.13;;;4.17;;
495;SDS011;39559;48.630;9.162;2022-11-20T05:15:22;5.32;;;4.30;;
495;SDS011;39559;48.630;9.162;2022-11-20T05:17:48;5.50;;;4.67;;
495;SDS011;39559;48.630;9.162;2022-11-20T05:22:14;5.35;;;3.95;;
495;SDS011;39559;48.630;9.162;2022-11-20T05:24:39;4.50;;;4.10;;
495;SDS011;39559;48.630;9.162;2022-11-20T05:27:05;4.57;;;4.17;;
495;SDS011;39559;48.630;9.162;2022-11-20T05:29:30;4.17;;;3.70;;
495;SDS011;39559;48.630;9.162;2022-11-20T05:31:56;4.63;;;4.23;;
495;SDS011;39559;48.630;9.162;2022-11-20T05:34:21;7.13;;;4.30;;
495;SDS011;39559;48.630;9.162;2022-11-20T05:36:47;4.10;;;3.80;;
495;SDS011;39559;48.630;9.162;2022-11-20T05:39:12;4.30;;;3.93;;
495;SDS011;39559;48.630;9.162;2022-11-20T05:41:38;4.23;;;3.90;;
495;SDS011;39559;48.630;9.162;2022-11-20T05:46:15;4.80;;;4.20;;
495;SDS011;39559;48.630;9.162;2022-11-20T05:48:44;3.70;;;3.40;;
495;SDS011;39559;48.630;9.162;2022-11-20T05:51:11;4.53;;;4.13;;
495;SDS011;39559;48.630;9.162;2022-11-20T05:53:39;4.53;;;4.13;;
495;SDS011;39559;48.630;9.162;2022-11-20T05:56:06;4.83;;;4.13;;
495;SDS011;39559;48.630;9.162;2022-11-20T05:58:35;4.78;;;4.38;;
495;SDS011;39559;48.630;9.162;2022-11-20T06:01:20;4.60;;;4.03;;
495;SDS011;39559;48.630;9.162;2022-11-20T06:03:47;4.93;;;4.47;;
495;SDS011;39559;48.630;9.162;2022-11-20T06:06:15;4.50;;;4.10;;
495;SDS011;39559;48.630;9.162;2022-11-20T06:10:15;5.07;;;4.18;;
495;SDS011;39559;48.630;9.162;2022-11-20T06:12:40;6.00;;;4.00;;
495;SDS011;39559;48.630;9.162;2022-11-20T06:15:06;4.17;;;3.80;;
495;SDS011;39559;48.630;9.162;2022-11-20T06:17:32;4.73;;;4.33;;
495;SDS011;39559;48.630;9.162;2022-11-20T06:19:57;4.40;;;4.00;;
495;SDS011;39559;48.630;9.162;2022-11-20T06:22:23;5.17;;;4.70;;
495;SDS011;39559;48.630;9.162;2022-11-20T06:24:48;5.17;;;3.87;;
495;SDS011;39559;48.630;9.162;2022-11-20T06:27:14;5.17;;;4.67;;
495;SDS011;39559;48.630;9.162;2022-11-20T06:29:40;5.95;;;5.35;;
495;SDS011;39559;48.630;9.162;2022-11-20T06:34:15;5.55;;;4.45;;
495;SDS011;39559;48.630;9.162;2022-11-20T06:36:41;5.33;;;4.20;;
495;SDS011;39559;48.630;9.162;2022-11-20T06:39:06;4.57;;;4.13;;
495;SDS011;39559;48.630;9.162;2022-11-20T06:41:32;4.50;;;4.03;;
495;SDS011;39559;48.630;9.162;2022-11-20T06:43:57;4.50;;;4.10;;
495;SDS011;39559;48.630;9.162;2022-11-20T06:46:23;4.27;;;3.87;;
495;SDS011;39559;48.630;9.162;2022-11-20T06:48:49;4.50;;;4.10;;
495;SDS011;39559;48.630;9.162;2022-11-20T06:51:15;4.95;;;4.45;;
495;SDS011;39559;48.630;9.162;2022-11-20T06:53:41;4.93;;;4.53;;
495;SDS011;39559;48.630;9.162;2022-11-20T06:58:15;4.80;;;4.10;;
495;SDS011;39559;48.630;9.162;2022-11-20T07:00:41;5.47;;;3.60;;
495;SDS011;39559;48.630;9.162;2022-11-20T07:03:08;5.67;;;3.77;;
495;SDS011;39559;48.630;9.162;2022-11-20T07:05:36;4.20;;;3.80;;
495;SDS011;39559;48.630;9.162;2022-11-20T07:08:02;6.32;;;4.40;;
495;SDS011;39559;48.630;9.162;2022-11-20T07:10:28;4.57;;;4.15;;
495;SDS011;39559;48.630;9.162;2022-11-20T07:12:54;3.87;;;3.57;;
495;SDS011;39559;48.630;9.162;2022-11-20T07:15:20;4.00;;;3.70;;
495;SDS011;39559;48.630;9.162;2022-11-20T07:17:47;4.13;;;3.72;;
495;SDS011;39559;48.630;9.162;2022-11-20T07:22:14;3.85;;;3.50;;
495;SDS011;39559;48.630;9.162;2022-11-20T07:24:39;4.10;;;3.70;;
495;SDS011;39559;48.630;9.162;2022-11-20T07:27:05;5.60;;;3.50;;
495;SDS011;39559;48.630;9.162;2022-11-20T07:29:30;4.37;;;3.60;;
495;SDS011;39559;48.630;9.162;2022-11-20T07:31:56;4.03;;;3.73;;
495;SDS011;39559;48.630;9.162;2022-11-20T07:34:22;4.40;;;4.00;;
495;SDS011;39559;48.630;9.162;2022-11-20T07:36:47;3.85;;;3.55;;
495;SDS011;39559;48.630;9.162;2022-11-20T07:39:13;3.90;;;3.50;;
495;SDS011;39559;48.630;9.162;2022-11-20T07:41:38;4.07;;;3.70;;
495;SDS011;39559;48.630;9.162;2022-11-20T07:46:16;3.95;;;3.40;;
495;SDS011;39559;48.630;9.162;2022-11-20T07:48:42;4.40;;;3.77;;
495;SDS011;39559;48.630;9.162;2022-11-20T07:51:07;4.67;;;4.27;;
495;SDS011;39559;48.630;9.162;2022-11-20T07:53:33;4.20;;;3.63;;
495;SDS011;39559;48.630;9.162;2022-11-20T07:55:59;3.73;;;3.43;;
495;SDS011;39559;48.630;9.162;2022-11-20T07:58:26;3.58;;;3.22;;
495;SDS011;39559;48.630;9.162;2022-11-20T08:00:53;5.25;;;3.47;;
495;SDS011;39559;48.630;9.162;2022-11-20T08:03:18;3.90;;;3.47;;
495;SDS011;39559;48.630;9.162;2022-11-20T08:05:44;3.40;;;3.10;;
495;SDS011;39559;48.630;9.162;2022-11-20T08:10:17;3.53;;;3.20;;
495;SDS011;39559;48.630;9.162;2022-11-20T08:12:46;5.10;;;3.60;;
495;SDS011;39559;48.630;9.162;2022-11-20T08:15:31;5.93;;;3.75;;
495;SDS011;39559;48.630;9.162;2022-11-20T08:18:00;3.60;;;3.30;;
495;SDS011;39559;48.630;9.162;2022-11-20T08:20:36;4.00;;;3.60;;
495;SDS011;39559;48.630;9.162;2022-11-20T08:23:04;4.00;;;3.70;;
495;SDS011;39559;48.630;9.162;2022-11-20T08:25:31;4.43;;;3.60;;
495;SDS011;39559;48.630;9.162;2022-11-20T08:27:58;3.25;;;3.03;;
495;SDS011;39559;48.630;9.162;2022-11-20T08:30:28;3.70;;;3.40;;
495;SDS011;39559;48.630;9.162;2022-11-20T08:34:14;3.88;;;3.47;;
495;SDS011;39559;48.630;9.162;2022-11-20T08:36:40;3.57;;;3.27;;
495;SDS011;39559;48.630;9.162;2022-11-20T08:39:05;4.60;;;4.20;;
495;SDS011;39559;48.630;9.162;2022-11-20T08:41:31;3.40;;;3.10;;
495;SDS011;39559;48.630;9.162;2022-11-20T08:44:01;3.42;;;3.13;;
495;SDS011;39559;48.630;9.162;2022-11-20T08:46:32;4.30;;;3.90;;
495;SDS011;39559;48.630;9.162;2022-11-20T08:49:05;3.45;;;2.80;;
495;SDS011;39559;48.630;9.162;2022-11-20T08:51:32;3.65;;;3.35;;
495;SDS011;39559;48.630;9.162;2022-11-20T08:53:58;6.67;;;5.20;;
495;SDS011;39559;48.630;9.162;2022-11-20T08:58:16;5.03;;;4.53;;
495;SDS011;39559;48.630;9.162;2022-11-20T09:00:42;3.63;;;3.33;;
495;SDS011;39559;48.630;9.162;2022-11-20T09:03:08;4.80;;;4.20;;
495;SDS011;39559;48.630;9.162;2022-11-20T09:05:33;3.77;;;3.47;;
495;SDS011;39559;48.630;9.162;2022-11-20T09:07:59;6.03;;;4.77;;
495;SDS011;39559;48.630;9.162;2022-11-20T09:10:28;4.20;;;3.80;;
495;SDS011;39559;48.630;9.162;2022-11-20T09:12:54;4.15;;;3.70;;
495;SDS011;39559;48.630;9.162;2022-11-20T09:15:23;4.55;;;4.10;;
495;SDS011;39559;48.630;9.162;2022-11-20T09:22:17;3.40;;;3.10;;
495;SDS011;39559;48.630;9.162;2022-11-20T09:24:43;4.90;;;4.10;;
495;SDS011;39559;48.630;9.162;2022-11-20T09:27:08;4.00;;;3.60;;
495;SDS011;39559;48.630;9.162;2022-11-20T09:29:34;4.10;;;3.70;;
495;SDS011;39559;48.630;9.162;2022-11-20T09:31:59;3.57;;;3.27;;
495;SDS011;39559;48.630;9.162;2022-11-20T09:34:25;3.77;;;3.40;;
495;SDS011;39559;48.630;9.162;2022-11-20T09:36:50;3.23;;;2.93;;
495;SDS011;39559;48.630;9.162;2022-11-20T09:39:16;3.10;;;2.80;;
495;SDS011;39559;48.630;9.162;2022-11-20T09:42:03;3.40;;;3.10;;
495;SDS011;39559;48.630;9.162;2022-11-20T09:51:53;3.20;;;3.00;;
495;SDS011;39559;48.630;9.162;2022-11-20T09:54:30;2.95;;;2.75;;
495;SDS011;39559;48.630;9.162;2022-11-20T09:57:19;2.88;;;2.67;;
495;SDS011;39559;48.630;9.162;2022-11-20T09:59:54;2.65;;;2.45;;
495;SDS011;39559;48.630;9.162;2022-11-20T10:04:49;2.90;;;2.30;;
495;SDS011;39559;48.630;9.162;2022-11-20T10:07:32;2.42;;;2.22;;
495;SDS011;39559;48.630;9.162;2022-11-20T10:10:19;6.60;;;3.05;;
495;SDS011;39559;48.630;9.162;2022-11-20T10:13:03;2.40;;;2.20;;
495;SDS011;39559;48.630;9.162;2022-11-20T10:21:41;2.80;;;2.60;;
495;SDS011;39559;48.630;9.162;2022-11-20T10:29:43;2.45;;;2.25;;
495;SDS011;39559;48.630;9.162;2022-11-20T10:34:28;2.28;;;2.15;;
495;SDS011;39559;48.630;9.162;2022-11-20T10:37:11;2.60;;;2.40;;
495;SDS011;39559;48.630;9.162;2022-11-20T10:39:48;2.63;;;2.42;;
495;SDS011;39559;48.630;9.162;2022-11-20T10:42:17;2.50;;;2.30;;
495;SDS011;39559;48.630;9.162;2022-11-20T10:44:52;2.40;;;2.20;;
495;SDS011;39559;48.630;9.162;2022-11-20T10:47:28;2.60;;;2.40;;
495;SDS011;39559;48.630;9.162;2022-11-20T10:49:57;2.83;;;2.63;;
495;SDS011;39559;48.630;9.162;2022-11-20T10:52:37;2.50;;;2.30;;
495;SDS011;39559;48.630;9.162;2022-11-20T11:01:15;2.50;;;2.30;;
495;SDS011;39559;48.630;9.162;2022-11-20T11:03:41;2.63;;;2.40;;
495;SDS011;39559;48.630;9.162;2022-11-20T11:06:14;2.50;;;2.30;;
495;SDS011;39559;48.630;9.162;2022-11-20T11:08:47;2.72;;;2.53;;
495;SDS011;39559;48.630;9.162;2022-11-20T11:11:22;2.70;;;2.50;;
495;SDS011;39559;48.630;9.162;2022-11-20T11:14:04;2.60;;;2.40;;
495;SDS011;39559;48.630;9.162;2022-11-20T11:16:34;2.40;;;2.20;;
495;SDS011;39559;48.630;9.162;2022-11-20T11:19:03;2.50;;;2.30;;
495;SDS011;39559;48.630;9.162;2022-11-20T11:22:18;3.85;;;3.50;;
495;SDS011;39559;48.630;9.162;2022-11-20T11:24:51;3.43;;;3.00;;
495;SDS011;39559;48.630;9.162;2022-11-20T11:27:17;3.20;;;2.90;;
495;SDS011;39559;48.630;9.162;2022-11-20T11:29:43;5.83;;;3.40;;
495;SDS011;39559;48.630;9.162;2022-11-20T11:32:14;3.10;;;2.90;;
495;SDS011;39559;48.630;9.162;2022-11-20T11:34:42;2.83;;;2.58;;
495;SDS011;39559;48.630;9.162;2022-11-20T11:37:12;3.33;;;3.03;;
495;SDS011;39559;48.630;9.162;2022-11-20T11:39:42;3.00;;;2.75;;
495;SDS011;39559;48.630;9.162;2022-11-20T11:42:18;3.00;;;2.80;;
495;SDS011;39559;48.630;9.162;2022-11-20T11:46:24;3.13;;;2.83;;
495;SDS011;39559;48.630;9.162;2022-11-20T11:48:56;3.17;;;2.92;;
495;SDS011;39559;48.630;9.162;2022-11-20T11:54:16;3.00;;;2.80;;
495;SDS011;39559;48.630;9.162;2022-11-20T11:56:49;2.70;;;2.50;;
495;SDS011;39559;48.630;9.162;2022-11-20T11:59:20;3.30;;;3.00;;
495;SDS011;39559;48.630;9.162;2022-11-20T12:01:53;3.20;;;2.90;;
495;SDS011;39559;48.630;9.162;2022-11-20T12:07:01;5.75;;;3.60;;
495;SDS011;39559;48.630;9.162;2022-11-20T12:10:22;3.05;;;2.85;;
495;SDS011;39559;48.630;9.162;2022-11-20T12:13:11;4.32;;;3.70;;
495;SDS011;39559;48.630;9.162;2022-11-20T12:15:57;3.95;;;3.40;;
495;SDS011;39559;48.630;9.162;2022-11-20T12:18:23;5.40;;;4.20;;
495;SDS011;39559;48.630;9.162;2022-11-20T12:26:07;4.18;;;3.60;;
495;SDS011;39559;48.630;9.162;2022-11-20T12:28:42;3.78;;;2.72;;
495;SDS011;39559;48.630;9.162;2022-11-20T12:39:27;3.78;;;3.47;;
495;SDS011;39559;48.630;9.162;2022-11-20T12:54:16;3.20;;;2.88;;
495;SDS011;39559;48.630;9.162;2022-11-20T12:58:22;3.63;;;3.33;;
495;SDS011;39559;48.630;9.162;2022-11-20T13:01:21;2.75;;;2.55;;
495;SDS011;39559;48.630;9.162;2022-11-20T13:04:12;3.70;;;2.80;;
495;SDS011;39559;48.630;9.162;2022-11-20T13:07:00;2.60;;;2.40;;
495;SDS011;39559;48.630;9.162;2022-11-20T13:09:27;3.35;;;3.00;;
495;SDS011;39559;48.630;9.162;2022-11-20T13:17:24;2.80;;;2.40;;
495;SDS011;39559;48.630;9.162;2022-11-20T13:22:24;3.30;;;3.00;;
495;SDS011;39559;48.630;9.162;2022-11-20T13:24:53;4.38;;;2.47;;
495;SDS011;39559;48.630;9.162;2022-11-20T13:27:23;3.23;;;2.63;;
495;SDS011;39559;48.630;9.162;2022-11-20T13:29:59;4.53;;;2.88;;
495;SDS011;39559;48.630;9.162;2022-11-20T13:32:47;3.58;;;2.53;;
495;SDS011;39559;48.630;9.162;2022-11-20T13:40:58;2.80;;;2.50;;
495;SDS011;39559;48.630;9.162;2022-11-20T13:46:16;3.00;;;2.80;;
495;SDS011;39559;48.630;9.162;2022-11-20T13:48:45;3.33;;;2.80;;
495;SDS011;39559;48.630;9.162;2022-11-20T13:51:23;3.22;;;2.60;;
495;SDS011;39559;48.630;9.162;2022-11-20T14:02:16;2.80;;;2.60;;
495;SDS011;39559;48.630;9.162;2022-11-20T14:04:45;3.33;;;3.03;;
495;SDS011;39559;48.630;9.162;2022-11-20T14:07:12;3.95;;;2.60;;
495;SDS011;39559;48.630;9.162;2022-11-20T14:10:23;2.78;;;2.58;;
495;SDS011;39559;48.630;9.162;2022-11-20T14:12:51;3.15;;;2.60;;
495;SDS011;39559;48.630;9.162;2022-11-20T14:15:30;4.00;;;3.10;;
495;SDS011;39559;48.630;9.162;2022-11-20T14:17:59;3.20;;;3.00;;
495;SDS011;39559;48.630;9.162;2022-11-20T14:20:26;2.95;;;2.65;;
495;SDS011;39559;48.630;9.162;2022-11-20T14:22:54;2.70;;;2.50;;
495;SDS011;39559;48.630;9.162;2022-11-20T14:25:21;3.03;;;2.60;;
495;SDS011;39559;48.630;9.162;2022-11-20T14:27:59;3.10;;;2.75;;
495;SDS011;39559;48.630;9.162;2022-11-20T14:30:28;2.83;;;2.63;;
495;SDS011;39559;48.630;9.162;2022-11-20T14:34:17;5.40;;;2.80;;
495;SDS011;39559;48.630;9.162;2022-11-20T14:36:45;3.15;;;2.90;;
495;SDS011;39559;48.630;9.162;2022-11-20T14:39:12;2.63;;;2.43;;
495;SDS011;39559;48.630;9.162;2022-11-20T14:41:52;3.35;;;2.45;;
495;SDS011;39559;48.630;9.162;2022-11-20T14:44:23;3.13;;;2.85;;
495;SDS011;39559;48.630;9.162;2022-11-20T14:46:53;3.50;;;3.20;;
495;SDS011;39559;48.630;9.162;2022-11-20T14:49:20;3.15;;;2.85;;
495;SDS011;39559;48.630;9.162;2022-11-20T14:51:46;4.87;;;2.30;;
495;SDS011;39559;48.630;9.162;2022-11-20T14:58:21;3.30;;;3.00;;
495;SDS011;39559;48.630;9.162;2022-11-20T15:01:05;2.50;;;2.28;;
495;SDS011;39559;48.630;9.162;2022-11-20T15:03:36;2.67;;;2.47;;
495;SDS011;39559;48.630;9.162;2022-11-20T15:06:04;2.78;;;2.58;;
495;SDS011;39559;48.630;9.162;2022-11-20T15:08:36;2.83;;;2.63;;
495;SDS011;39559;48.630;9.162;2022-11-20T15:11:01;3.77;;;3.47;;
495;SDS011;39559;48.630;9.162;2022-11-20T15:13:36;3.50;;;2.77;;
495;SDS011;39559;48.630;9.162;2022-11-20T15:16:08;4.63;;;3.30;;
495;SDS011;39559;48.630;9.162;2022-11-20T15:18:42;3.90;;;3.60;;
495;SDS011;39559;48.630;9.162;2022-11-20T15:22:14;5.68;;;4.63;;
495;SDS011;39559;48.630;9.162;2022-11-20T15:24:41;4.88;;;4.40;;
495;SDS011;39559;48.630;9.162;2022-11-20T15:27:10;3.60;;;3.30;;
495;SDS011;39559;48.630;9.162;2022-11-20T15:29:36;2.95;;;2.72;;
495;SDS011;39559;48.630;9.162;2022-11-20T15:32:01;2.17;;;2.07;;
495;SDS011;39559;48.630;9.162;2022-11-20T15:34:27;2.40;;;2.20;;
495;SDS011;39559;48.630;9.162;2022-11-20T15:36:54;2.70;;;2.50;;
495;SDS011;39559;48.630;9.162;2022-11-20T15:39:19;2.57;;;2.37;;
495;SDS011;39559;48.630;9.162;2022-11-20T15:41:45;2.78;;;2.58;;
495;SDS011;39559;48.630;9.162;2022-11-20T15:46:15;2.70;;;2.50;;
495;SDS011;39559;48.630;9.162;2022-11-20T15:48:45;2.85;;;2.65;;
495;SDS011;39559;48.630;9.162;2022-11-20T15:51:34;3.47;;;2.60;;
495;SDS011;39559;48.630;9.162;2022-11-20T15:53:59;8.68;;;2.88;;
495;SDS011;39559;48.630;9.162;2022-11-20T15:56:26;3.10;;;2.80;;
495;SDS011;39559;48.630;9.162;2022-11-20T15:58:51;2.93;;;2.73;;
495;SDS011;39559;48.630;9.162;2022-11-20T16:01:18;3.00;;;2.80;;
495;SDS011;39559;48.630;9.162;2022-11-20T16:03:45;3.05;;;2.75;;
495;SDS011;39559;48.630;9.162;2022-11-20T16:06:11;3.00;;;2.80;;
495;SDS011;39559;48.630;9.162;2022-11-20T16:10:13;3.65;;;3.00;;
495;SDS011;39559;48.630;9.162;2022-11-20T16:12:39;3.30;;;2.90;;
495;SDS011;39559;48.630;9.162;2022-11-20T16:15:23;3.00;;;2.80;;
495;SDS011;39559;48.630;9.162;2022-11-20T16:18:08;3.05;;;2.85;;
495;SDS011;39559;48.630;9.162;2022-11-20T16:20:35;3.25;;;2.95;;
495;SDS011;39559;48.630;9.162;2022-11-20T16:23:01;3.13;;;2.83;;
495;SDS011;39559;48.630;9.162;2022-11-20T16:25:27;4.50;;;3.30;;
495;SDS011;39559;48.630;9.162;2022-11-20T16:27:52;3.00;;;2.80;;
495;SDS011;39559;48.630;9.162;2022-11-20T16:30:18;3.57;;;2.67;;
495;SDS011;39559;48.630;9.162;2022-11-20T16:34:15;2.70;;;2.50;;
495;SDS011;39559;48.630;9.162;2022-11-20T16:36:41;3.47;;;2.75;;
495;SDS011;39559;48.630;9.162;2022-11-20T16:39:08;2.80;;;2.60;;
495;SDS011;39559;48.630;9.162;2022-11-20T16:41:34;3.00;;;2.60;;
495;SDS011;39559;48.630;9.162;2022-11-20T16:44:00;2.90;;;2.70;;
495;SDS011;39559;48.630;9.162;2022-11-20T16:46:29;2.90;;;2.70;;
495;SDS011;39559;48.630;9.162;2022-11-20T16:48:56;3.10;;;2.80;;
495;SDS011;39559;48.630;9.162;2022-11-20T16:51:23;2.83;;;2.58;;
495;SDS011;39559;48.630;9.162;2022-11-20T16:53:50;3.22;;;2.92;;
495;SDS011;39559;48.630;9.162;2022-11-20T16:58:12;3.25;;;2.80;;
495;SDS011;39559;48.630;9.162;2022-11-20T17:00:39;4.05;;;3.20;;
495;SDS011;39559;48.630;9.162;2022-11-20T17:03:05;3.15;;;2.90;;
495;SDS011;39559;48.630;9.162;2022-11-20T17:05:31;4.25;;;3.20;;
495;SDS011;39559;48.630;9.162;2022-11-20T17:07:58;3.42;;;3.13;;
495;SDS011;39559;48.630;9.162;2022-11-20T17:10:24;3.30;;;3.00;;
495;SDS011;39559;48.630;9.162;2022-11-20T17:12:50;3.85;;;3.45;;
495;SDS011;39559;48.630;9.162;2022-11-20T17:15:16;4.40;;;4.00;;
495;SDS011;39559;48.630;9.162;2022-11-20T17:17:41;9.13;;;5.90;;
495;SDS011;39559;48.630;9.162;2022-11-20T17:22:12;7.03;;;4.47;;
495;SDS011;39559;48.630;9.162;2022-11-20T17:24:38;4.13;;;3.70;;
495;SDS011;39559;48.630;9.162;2022-11-20T17:27:03;3.90;;;3.50;;
495;SDS011;39559;48.630;9.162;2022-11-20T17:29:29;2.90;;;2.70;;
495;SDS011;39559;48.630;9.162;2022-11-20T17:31:54;5.43;;;4.93;;
495;SDS011;39559;48.630;9.162;2022-11-20T17:34:20;5.27;;;4.77;;
495;SDS011;39559;48.630;9.162;2022-11-20T17:36:45;4.00;;;3.70;;
495;SDS011;39559;48.630;9.162;2022-11-20T17:39:12;3.40;;;2.80;;
495;SDS011;39559;48.630;9.162;2022-11-20T17:41:38;4.05;;;3.65;;
495;SDS011;39559;48.630;9.162;2022-11-20T17:46:13;6.15;;;4.00;;
495;SDS011;39559;48.630;9.162;2022-11-20T17:48:39;4.57;;;4.18;;
495;SDS011;39559;48.630;9.162;2022-11-20T17:51:10;3.80;;;3.20;;
495;SDS011;39559;48.630;9.162;2022-11-20T17:53:38;4.43;;;4.03;;
495;SDS011;39559;48.630;9.162;2022-11-20T17:56:05;6.15;;;5.55;;
495;SDS011;39559;48.630;9.162;2022-11-20T17:58:49;6.22;;;4.43;;
495;SDS011;39559;48.630;9.162;2022-11-20T18:01:15;4.93;;;4.53;;
495;SDS011;39559;48.630;9.162;2022-11-20T18:03:41;3.83;;;3.53;;